sensor_id;sensor_type;location;lat;lon;timestamp;P1;durP1;ratioP1;P2;durP2;ratioP2
65706;SDS011;52423;43.512;5.220;2023-05-15T00:01:27;1.98;;;1.83;;
65706;SDS011;52423;43.512;5.220;2023-05-15T00:03:53;1.95;;;1.85;;
65706;SDS011;52423;43.512;5.220;2023-05-15T00:06:19;1.95;;;1.80;;
65706;SDS011;52423;43.512;5.220;2023-05-15T00:08:44;1.85;;;1.75;;
65706;SDS011;52423;43.512;5.220;2023-05-15T00:11:10;1.98;;;1.80;;
65706;SDS011;52423;43.512;5.220;2023-05-15T00:13:35;7.38;;;2.08;;
65706;SDS011;52423;43.512;5.220;2023-05-15T00:16:02;2.03;;;1.92;;
65706;SDS011;52423;43.512;5.220;2023-05-15T00:18:31;6.10;;;1.90;;
65706;SDS011;52423;43.512;5.220;2023-05-15T00:20:57;3.75;;;2.05;;
65706;SDS011;52423;43.512;5.220;2023-05-15T00:23:23;2.83;;;2.00;;
65706;SDS011;52423;43.512;5.220;2023-05-15T00:25:48;5.90;;;2.25;;
65706;SDS011;52423;43.512;5.220;2023-05-15T00:28:13;2.03;;;1.92;;
65706;SDS011;52423;43.512;5.220;2023-05-15T00:30:39;1.98;;;1.80;;
65706;SDS011;52423;43.512;5.220;2023-05-15T00:33:04;1.98;;;1.88;;
65706;SDS011;52423;43.512;5.220;2023-05-15T00:35:31;2.75;;;2.40;;
65706;SDS011;52423;43.512;5.220;2023-05-15T00:37:56;4.38;;;2.03;;
65706;SDS011;52423;43.512;5.220;2023-05-15T00:40:22;2.53;;;2.25;;
65706;SDS011;52423;43.512;5.220;2023-05-15T00:42:48;2.33;;;2.22;;
65706;SDS011;52423;43.512;5.220;2023-05-15T00:45:15;6.65;;;2.30;;
65706;SDS011;52423;43.512;5.220;2023-05-15T00:47:41;2.30;;;2.17;;
65706;SDS011;52423;43.512;5.220;2023-05-15T00:50:07;2.40;;;2.20;;
65706;SDS011;52423;43.512;5.220;2023-05-15T00:52:34;2.30;;;2.20;;
65706;SDS011;52423;43.512;5.220;2023-05-15T00:55:00;2.88;;;2.47;;
65706;SDS011;52423;43.512;5.220;2023-05-15T00:57:26;3.53;;;2.20;;
65706;SDS011;52423;43.512;5.220;2023-05-15T00:59:51;2.30;;;2.10;;
65706;SDS011;52423;43.512;5.220;2023-05-15T01:02:18;2.88;;;2.30;;
65706;SDS011;52423;43.512;5.220;2023-05-15T01:04:44;5.22;;;2.60;;
65706;SDS011;52423;43.512;5.220;2023-05-15T01:07:10;2.78;;;2.58;;
65706;SDS011;52423;43.512;5.220;2023-05-15T01:09:35;2.45;;;2.25;;
65706;SDS011;52423;43.512;5.220;2023-05-15T01:12:02;4.55;;;2.60;;
65706;SDS011;52423;43.512;5.220;2023-05-15T01:14:29;2.35;;;2.25;;
65706;SDS011;52423;43.512;5.220;2023-05-15T01:16:54;2.30;;;2.20;;
65706;SDS011;52423;43.512;5.220;2023-05-15T01:19:20;3.10;;;2.72;;
65706;SDS011;52423;43.512;5.220;2023-05-15T01:24:53;11.95;;;2.70;;
65706;SDS011;52423;43.512;5.220;2023-05-15T01:27:38;2.58;;;2.38;;
65706;SDS011;52423;43.512;5.220;2023-05-15T01:30:12;3.63;;;2.03;;
65706;SDS011;52423;43.512;5.220;2023-05-15T01:38:12;5.15;;;2.47;;
65706;SDS011;52423;43.512;5.220;2023-05-15T01:40:46;2.72;;;2.53;;
65706;SDS011;52423;43.512;5.220;2023-05-15T01:43:14;2.92;;;2.60;;
65706;SDS011;52423;43.512;5.220;2023-05-15T01:45:45;6.70;;;2.70;;
65706;SDS011;52423;43.512;5.220;2023-05-15T01:48:11;3.00;;;2.47;;
65706;SDS011;52423;43.512;5.220;2023-05-15T01:50:37;4.68;;;2.60;;
65706;SDS011;52423;43.512;5.220;2023-05-15T01:53:04;2.83;;;2.63;;
65706;SDS011;52423;43.512;5.220;2023-05-15T01:55:32;4.07;;;2.80;;
65706;SDS011;52423;43.512;5.220;2023-05-15T01:57:59;2.88;;;2.67;;
65706;SDS011;52423;43.512;5.220;2023-05-15T02:00:25;4.03;;;2.53;;
65706;SDS011;52423;43.512;5.220;2023-05-15T02:02:51;3.13;;;2.75;;
65706;SDS011;52423;43.512;5.220;2023-05-15T02:05:17;6.32;;;3.20;;
65706;SDS011;52423;43.512;5.220;2023-05-15T02:07:43;3.40;;;2.78;;
65706;SDS011;52423;43.512;5.220;2023-05-15T02:10:10;3.03;;;2.83;;
65706;SDS011;52423;43.512;5.220;2023-05-15T02:12:37;3.28;;;2.97;;
65706;SDS011;52423;43.512;5.220;2023-05-15T02:15:06;2.80;;;2.53;;
65706;SDS011;52423;43.512;5.220;2023-05-15T02:17:33;2.95;;;2.75;;
65706;SDS011;52423;43.512;5.220;2023-05-15T02:19:59;3.00;;;2.50;;
65706;SDS011;52423;43.512;5.220;2023-05-15T02:22:24;2.90;;;2.60;;
65706;SDS011;52423;43.512;5.220;2023-05-15T02:24:50;2.60;;;2.40;;
65706;SDS011;52423;43.512;5.220;2023-05-15T02:27:19;8.20;;;2.90;;
65706;SDS011;52423;43.512;5.220;2023-05-15T02:38:01;5.63;;;2.70;;
65706;SDS011;52423;43.512;5.220;2023-05-15T02:40:31;2.83;;;2.63;;
65706;SDS011;52423;43.512;5.220;2023-05-15T02:42:59;2.63;;;2.50;;
65706;SDS011;52423;43.512;5.220;2023-05-15T02:45:25;4.60;;;2.78;;
65706;SDS011;52423;43.512;5.220;2023-05-15T02:47:51;3.05;;;2.65;;
65706;SDS011;52423;43.512;5.220;2023-05-15T02:50:17;3.13;;;2.80;;
65706;SDS011;52423;43.512;5.220;2023-05-15T02:52:42;3.15;;;2.85;;
65706;SDS011;52423;43.512;5.220;2023-05-15T02:55:08;3.63;;;3.28;;
65706;SDS011;52423;43.512;5.220;2023-05-15T02:57:34;2.90;;;2.65;;
65706;SDS011;52423;43.512;5.220;2023-05-15T02:59:59;3.75;;;2.97;;
65706;SDS011;52423;43.512;5.220;2023-05-15T03:02:25;4.07;;;3.10;;
65706;SDS011;52423;43.512;5.220;2023-05-15T03:04:51;3.75;;;2.88;;
65706;SDS011;52423;43.512;5.220;2023-05-15T03:07:16;2.90;;;2.70;;
65706;SDS011;52423;43.512;5.220;2023-05-15T03:09:42;2.83;;;2.63;;
65706;SDS011;52423;43.512;5.220;2023-05-15T03:12:07;4.65;;;2.85;;
65706;SDS011;52423;43.512;5.220;2023-05-15T03:14:33;6.25;;;3.00;;
65706;SDS011;52423;43.512;5.220;2023-05-15T03:16:59;4.15;;;3.55;;
65706;SDS011;52423;43.512;5.220;2023-05-15T03:19:24;3.40;;;3.17;;
65706;SDS011;52423;43.512;5.220;2023-05-15T03:21:50;3.20;;;2.90;;
65706;SDS011;52423;43.512;5.220;2023-05-15T03:24:15;5.93;;;3.22;;
65706;SDS011;52423;43.512;5.220;2023-05-15T03:26:40;4.05;;;3.33;;
65706;SDS011;52423;43.512;5.220;2023-05-15T03:29:06;3.67;;;3.38;;
65706;SDS011;52423;43.512;5.220;2023-05-15T03:31:32;3.65;;;3.35;;
65706;SDS011;52423;43.512;5.220;2023-05-15T03:33:57;4.45;;;3.35;;
65706;SDS011;52423;43.512;5.220;2023-05-15T03:36:23;3.58;;;3.28;;
65706;SDS011;52423;43.512;5.220;2023-05-15T03:38:48;4.93;;;3.47;;
65706;SDS011;52423;43.512;5.220;2023-05-15T03:41:13;4.00;;;3.60;;
65706;SDS011;52423;43.512;5.220;2023-05-15T03:43:39;3.80;;;3.50;;
65706;SDS011;52423;43.512;5.220;2023-05-15T03:46:04;5.85;;;3.88;;
65706;SDS011;52423;43.512;5.220;2023-05-15T03:48:30;4.97;;;3.60;;
65706;SDS011;52423;43.512;5.220;2023-05-15T03:50:55;4.10;;;3.80;;
65706;SDS011;52423;43.512;5.220;2023-05-15T03:53:21;8.35;;;3.67;;
65706;SDS011;52423;43.512;5.220;2023-05-15T03:55:46;5.57;;;4.00;;
65706;SDS011;52423;43.512;5.220;2023-05-15T03:58:12;5.18;;;3.80;;
65706;SDS011;52423;43.512;5.220;2023-05-15T04:00:37;4.10;;;3.80;;
65706;SDS011;52423;43.512;5.220;2023-05-15T04:03:02;4.68;;;4.25;;
65706;SDS011;52423;43.512;5.220;2023-05-15T04:05:28;4.20;;;3.83;;
65706;SDS011;52423;43.512;5.220;2023-05-15T04:07:53;5.38;;;4.88;;
65706;SDS011;52423;43.512;5.220;2023-05-15T04:10:18;6.53;;;4.70;;
65706;SDS011;52423;43.512;5.220;2023-05-15T04:12:44;4.60;;;4.15;;
65706;SDS011;52423;43.512;5.220;2023-05-15T04:17:45;6.20;;;4.70;;
65706;SDS011;52423;43.512;5.220;2023-05-15T04:20:13;5.53;;;4.60;;
65706;SDS011;52423;43.512;5.220;2023-05-15T04:22:40;8.85;;;4.32;;
65706;SDS011;52423;43.512;5.220;2023-05-15T04:25:06;6.70;;;4.88;;
65706;SDS011;52423;43.512;5.220;2023-05-15T04:27:33;9.27;;;4.78;;
65706;SDS011;52423;43.512;5.220;2023-05-15T04:29:59;5.15;;;4.55;;
65706;SDS011;52423;43.512;5.220;2023-05-15T04:32:25;6.18;;;5.03;;
65706;SDS011;52423;43.512;5.220;2023-05-15T04:34:51;5.30;;;4.80;;
65706;SDS011;52423;43.512;5.220;2023-05-15T04:37:17;5.10;;;4.72;;
65706;SDS011;52423;43.512;5.220;2023-05-15T04:39:42;6.70;;;5.85;;
65706;SDS011;52423;43.512;5.220;2023-05-15T04:42:07;6.70;;;4.53;;
65706;SDS011;52423;43.512;5.220;2023-05-15T04:44:33;5.43;;;4.93;;
65706;SDS011;52423;43.512;5.220;2023-05-15T04:46:58;5.53;;;4.85;;
65706;SDS011;52423;43.512;5.220;2023-05-15T04:49:24;6.03;;;5.43;;
65706;SDS011;52423;43.512;5.220;2023-05-15T04:51:50;7.18;;;6.00;;
65706;SDS011;52423;43.512;5.220;2023-05-15T04:54:15;5.88;;;5.38;;
65706;SDS011;52423;43.512;5.220;2023-05-15T04:56:41;8.38;;;5.82;;
65706;SDS011;52423;43.512;5.220;2023-05-15T04:59:06;13.60;;;5.60;;
65706;SDS011;52423;43.512;5.220;2023-05-15T05:01:31;7.55;;;6.38;;
65706;SDS011;52423;43.512;5.220;2023-05-15T05:03:57;5.78;;;5.28;;
65706;SDS011;52423;43.512;5.220;2023-05-15T05:06:22;5.70;;;5.10;;
65706;SDS011;52423;43.512;5.220;2023-05-15T05:08:48;6.15;;;5.57;;
65706;SDS011;52423;43.512;5.220;2023-05-15T05:11:14;5.72;;;5.20;;
65706;SDS011;52423;43.512;5.220;2023-05-15T05:13:40;8.00;;;5.25;;
65706;SDS011;52423;43.512;5.220;2023-05-15T05:16:06;6.35;;;4.68;;
65706;SDS011;52423;43.512;5.220;2023-05-15T05:18:32;6.30;;;4.70;;
65706;SDS011;52423;43.512;5.220;2023-05-15T05:21:02;8.35;;;4.63;;
65706;SDS011;52423;43.512;5.220;2023-05-15T05:23:28;6.25;;;4.93;;
65706;SDS011;52423;43.512;5.220;2023-05-15T05:25:54;6.93;;;4.80;;
65706;SDS011;52423;43.512;5.220;2023-05-15T05:28:20;6.95;;;4.93;;
65706;SDS011;52423;43.512;5.220;2023-05-15T05:30:46;12.50;;;4.72;;
65706;SDS011;52423;43.512;5.220;2023-05-15T05:33:12;5.28;;;4.72;;
65706;SDS011;52423;43.512;5.220;2023-05-15T05:35:38;6.55;;;4.30;;
65706;SDS011;52423;43.512;5.220;2023-05-15T05:38:03;5.57;;;4.90;;
65706;SDS011;52423;43.512;5.220;2023-05-15T05:40:29;4.70;;;4.28;;
65706;SDS011;52423;43.512;5.220;2023-05-15T05:42:57;4.95;;;4.50;;
65706;SDS011;52423;43.512;5.220;2023-05-15T05:45:24;4.20;;;3.90;;
65706;SDS011;52423;43.512;5.220;2023-05-15T05:47:49;6.82;;;4.28;;
65706;SDS011;52423;43.512;5.220;2023-05-15T05:50:14;7.60;;;4.82;;
65706;SDS011;52423;43.512;5.220;2023-05-15T05:52:40;5.28;;;4.75;;
65706;SDS011;52423;43.512;5.220;2023-05-15T05:55:05;5.85;;;4.68;;
65706;SDS011;52423;43.512;5.220;2023-05-15T05:57:31;4.93;;;4.50;;
65706;SDS011;52423;43.512;5.220;2023-05-15T05:59:57;7.75;;;4.30;;
65706;SDS011;52423;43.512;5.220;2023-05-15T06:02:22;4.68;;;4.28;;
65706;SDS011;52423;43.512;5.220;2023-05-15T06:04:48;5.07;;;4.57;;
65706;SDS011;52423;43.512;5.220;2023-05-15T06:07:13;8.98;;;7.60;;
65706;SDS011;52423;43.512;5.220;2023-05-15T06:09:39;4.93;;;4.15;;
65706;SDS011;52423;43.512;5.220;2023-05-15T06:12:05;5.65;;;4.68;;
65706;SDS011;52423;43.512;5.220;2023-05-15T06:14:32;5.57;;;4.15;;
65706;SDS011;52423;43.512;5.220;2023-05-15T06:16:57;6.07;;;4.20;;
65706;SDS011;52423;43.512;5.220;2023-05-15T06:19:23;5.32;;;4.35;;
65706;SDS011;52423;43.512;5.220;2023-05-15T06:21:48;4.38;;;3.97;;
65706;SDS011;52423;43.512;5.220;2023-05-15T06:24:13;4.90;;;4.50;;
65706;SDS011;52423;43.512;5.220;2023-05-15T06:26:39;4.30;;;3.90;;
65706;SDS011;52423;43.512;5.220;2023-05-15T06:29:04;4.57;;;3.80;;
65706;SDS011;52423;43.512;5.220;2023-05-15T06:31:30;7.47;;;3.83;;
65706;SDS011;52423;43.512;5.220;2023-05-15T06:33:55;10.80;;;3.78;;
65706;SDS011;52423;43.512;5.220;2023-05-15T06:36:20;5.30;;;3.70;;
65706;SDS011;52423;43.512;5.220;2023-05-15T06:38:46;4.15;;;3.78;;
65706;SDS011;52423;43.512;5.220;2023-05-15T06:41:11;3.90;;;3.60;;
65706;SDS011;52423;43.512;5.220;2023-05-15T06:43:37;6.47;;;3.60;;
65706;SDS011;52423;43.512;5.220;2023-05-15T06:46:02;4.57;;;4.15;;
65706;SDS011;52423;43.512;5.220;2023-05-15T06:48:27;5.13;;;3.80;;
65706;SDS011;52423;43.512;5.220;2023-05-15T06:50:53;11.70;;;3.50;;
65706;SDS011;52423;43.512;5.220;2023-05-15T06:53:18;6.38;;;3.50;;
65706;SDS011;52423;43.512;5.220;2023-05-15T06:55:44;3.70;;;3.40;;
65706;SDS011;52423;43.512;5.220;2023-05-15T06:58:10;5.57;;;3.65;;
65706;SDS011;52423;43.512;5.220;2023-05-15T07:00:35;3.50;;;3.20;;
65706;SDS011;52423;43.512;5.220;2023-05-15T07:03:01;8.68;;;3.50;;
65706;SDS011;52423;43.512;5.220;2023-05-15T07:05:26;4.72;;;3.60;;
65706;SDS011;52423;43.512;5.220;2023-05-15T07:07:51;4.47;;;3.50;;
65706;SDS011;52423;43.512;5.220;2023-05-15T07:10:17;3.55;;;3.25;;
65706;SDS011;52423;43.512;5.220;2023-05-15T07:12:42;3.65;;;3.30;;
65706;SDS011;52423;43.512;5.220;2023-05-15T07:15:08;5.18;;;3.65;;
65706;SDS011;52423;43.512;5.220;2023-05-15T07:17:34;6.28;;;3.55;;
65706;SDS011;52423;43.512;5.220;2023-05-15T07:19:59;4.22;;;3.25;;
65706;SDS011;52423;43.512;5.220;2023-05-15T07:22:28;6.90;;;3.25;;
65706;SDS011;52423;43.512;5.220;2023-05-15T07:24:53;5.35;;;3.55;;
65706;SDS011;52423;43.512;5.220;2023-05-15T07:27:19;4.25;;;3.85;;
65706;SDS011;52423;43.512;5.220;2023-05-15T07:29:44;7.13;;;3.53;;
65706;SDS011;52423;43.512;5.220;2023-05-15T07:32:09;6.40;;;4.18;;
65706;SDS011;52423;43.512;5.220;2023-05-15T07:34:35;4.68;;;3.55;;
65706;SDS011;52423;43.512;5.220;2023-05-15T07:37:00;11.68;;;3.72;;
65706;SDS011;52423;43.512;5.220;2023-05-15T07:39:26;10.10;;;3.80;;
65706;SDS011;52423;43.512;5.220;2023-05-15T07:41:51;4.30;;;3.78;;
65706;SDS011;52423;43.512;5.220;2023-05-15T07:44:17;5.90;;;3.63;;
65706;SDS011;52423;43.512;5.220;2023-05-15T07:46:42;4.72;;;3.80;;
65706;SDS011;52423;43.512;5.220;2023-05-15T07:49:09;10.10;;;4.18;;
65706;SDS011;52423;43.512;5.220;2023-05-15T07:51:34;6.53;;;3.30;;
65706;SDS011;52423;43.512;5.220;2023-05-15T07:54:00;3.50;;;3.20;;
65706;SDS011;52423;43.512;5.220;2023-05-15T07:56:28;6.93;;;3.70;;
65706;SDS011;52423;43.512;5.220;2023-05-15T07:58:53;5.10;;;3.40;;
65706;SDS011;52423;43.512;5.220;2023-05-15T08:01:18;4.38;;;3.70;;
65706;SDS011;52423;43.512;5.220;2023-05-15T08:03:44;5.63;;;3.78;;
65706;SDS011;52423;43.512;5.220;2023-05-15T08:06:09;6.65;;;3.80;;
65706;SDS011;52423;43.512;5.220;2023-05-15T08:08:35;3.90;;;3.55;;
65706;SDS011;52423;43.512;5.220;2023-05-15T08:11:00;5.35;;;3.38;;
65706;SDS011;52423;43.512;5.220;2023-05-15T08:13:26;3.63;;;3.40;;
65706;SDS011;52423;43.512;5.220;2023-05-15T08:15:51;7.28;;;3.78;;
65706;SDS011;52423;43.512;5.220;2023-05-15T08:18:16;5.75;;;3.47;;
65706;SDS011;52423;43.512;5.220;2023-05-15T08:20:42;7.07;;;3.70;;
65706;SDS011;52423;43.512;5.220;2023-05-15T08:23:07;4.95;;;3.53;;
65706;SDS011;52423;43.512;5.220;2023-05-15T08:25:32;4.55;;;3.17;;
65706;SDS011;52423;43.512;5.220;2023-05-15T08:27:58;5.47;;;3.50;;
65706;SDS011;52423;43.512;5.220;2023-05-15T08:30:23;3.33;;;3.13;;
65706;SDS011;52423;43.512;5.220;2023-05-15T08:32:49;7.07;;;3.50;;
65706;SDS011;52423;43.512;5.220;2023-05-15T08:35:14;4.32;;;3.30;;
65706;SDS011;52423;43.512;5.220;2023-05-15T08:37:40;3.65;;;2.95;;
65706;SDS011;52423;43.512;5.220;2023-05-15T08:40:05;5.35;;;3.20;;
65706;SDS011;52423;43.512;5.220;2023-05-15T08:42:36;9.20;;;3.42;;
65706;SDS011;52423;43.512;5.220;2023-05-15T08:45:05;3.35;;;3.15;;
65706;SDS011;52423;43.512;5.220;2023-05-15T08:47:32;4.30;;;3.47;;
65706;SDS011;52423;43.512;5.220;2023-05-15T08:52:33;5.45;;;3.92;;
65706;SDS011;52423;43.512;5.220;2023-05-15T08:54:58;4.72;;;4.10;;
65706;SDS011;52423;43.512;5.220;2023-05-15T08:57:25;5.50;;;3.63;;
65706;SDS011;52423;43.512;5.220;2023-05-15T08:59:52;10.18;;;3.67;;
65706;SDS011;52423;43.512;5.220;2023-05-15T09:02:18;4.65;;;3.58;;
65706;SDS011;52423;43.512;5.220;2023-05-15T09:04:44;10.05;;;4.18;;
65706;SDS011;52423;43.512;5.220;2023-05-15T09:07:10;4.63;;;4.22;;
65706;SDS011;52423;43.512;5.220;2023-05-15T09:09:36;3.75;;;3.50;;
65706;SDS011;52423;43.512;5.220;2023-05-15T09:12:03;8.32;;;3.95;;
65706;SDS011;52423;43.512;5.220;2023-05-15T09:14:31;4.80;;;3.90;;
65706;SDS011;52423;43.512;5.220;2023-05-15T09:16:56;6.43;;;4.00;;
65706;SDS011;52423;43.512;5.220;2023-05-15T09:19:22;7.25;;;4.50;;
65706;SDS011;52423;43.512;5.220;2023-05-15T09:21:47;4.93;;;4.15;;
65706;SDS011;52423;43.512;5.220;2023-05-15T09:24:17;4.43;;;4.10;;
65706;SDS011;52423;43.512;5.220;2023-05-15T09:27:07;3.88;;;3.53;;
65706;SDS011;52423;43.512;5.220;2023-05-15T09:29:34;15.45;;;4.30;;
65706;SDS011;52423;43.512;5.220;2023-05-15T09:32:05;5.32;;;3.35;;
65706;SDS011;52423;43.512;5.220;2023-05-15T09:34:32;6.10;;;3.90;;
65706;SDS011;52423;43.512;5.220;2023-05-15T09:37:00;6.75;;;4.50;;
65706;SDS011;52423;43.512;5.220;2023-05-15T09:39:26;18.23;;;4.30;;
65706;SDS011;52423;43.512;5.220;2023-05-15T09:41:52;6.10;;;4.25;;
65706;SDS011;52423;43.512;5.220;2023-05-15T09:44:27;5.32;;;3.58;;
65706;SDS011;52423;43.512;5.220;2023-05-15T09:46:52;4.13;;;3.80;;
65706;SDS011;52423;43.512;5.220;2023-05-15T09:49:18;4.50;;;4.10;;
65706;SDS011;52423;43.512;5.220;2023-05-15T09:51:43;4.95;;;4.47;;
65706;SDS011;52423;43.512;5.220;2023-05-15T09:54:14;4.65;;;4.20;;
65706;SDS011;52423;43.512;5.220;2023-05-15T09:56:44;9.48;;;5.00;;
65706;SDS011;52423;43.512;5.220;2023-05-15T09:59:14;4.82;;;4.40;;
65706;SDS011;52423;43.512;5.220;2023-05-15T10:01:42;6.55;;;4.47;;
65706;SDS011;52423;43.512;5.220;2023-05-15T10:04:09;9.20;;;4.60;;
65706;SDS011;52423;43.512;5.220;2023-05-15T10:06:36;7.40;;;4.47;;
65706;SDS011;52423;43.512;5.220;2023-05-15T10:09:10;4.97;;;4.47;;
65706;SDS011;52423;43.512;5.220;2023-05-15T10:11:37;4.60;;;4.20;;
65706;SDS011;52423;43.512;5.220;2023-05-15T10:14:04;9.45;;;4.00;;
65706;SDS011;52423;43.512;5.220;2023-05-15T10:16:34;5.93;;;4.05;;
65706;SDS011;52423;43.512;5.220;2023-05-15T10:19:07;4.88;;;3.90;;
65706;SDS011;52423;43.512;5.220;2023-05-15T10:21:34;5.72;;;4.60;;
65706;SDS011;52423;43.512;5.220;2023-05-15T10:24:02;5.93;;;4.55;;
65706;SDS011;52423;43.512;5.220;2023-05-15T10:29:10;4.95;;;4.10;;
65706;SDS011;52423;43.512;5.220;2023-05-15T10:31:40;10.38;;;3.97;;
65706;SDS011;52423;43.512;5.220;2023-05-15T10:34:06;3.90;;;3.58;;
65706;SDS011;52423;43.512;5.220;2023-05-15T10:36:33;6.38;;;3.30;;
65706;SDS011;52423;43.512;5.220;2023-05-15T10:39:00;4.55;;;3.90;;
65706;SDS011;52423;43.512;5.220;2023-05-15T10:41:27;6.18;;;4.07;;
65706;SDS011;52423;43.512;5.220;2023-05-15T10:43:54;9.02;;;4.50;;
65706;SDS011;52423;43.512;5.220;2023-05-15T10:46:24;5.13;;;4.18;;
65706;SDS011;52423;43.512;5.220;2023-05-15T10:48:51;6.03;;;4.05;;
65706;SDS011;52423;43.512;5.220;2023-05-15T10:51:18;8.05;;;4.50;;
65706;SDS011;52423;43.512;5.220;2023-05-15T10:53:52;6.05;;;4.15;;
65706;SDS011;52423;43.512;5.220;2023-05-15T10:56:18;3.95;;;3.55;;
65706;SDS011;52423;43.512;5.220;2023-05-15T10:58:48;6.43;;;4.10;;
65706;SDS011;52423;43.512;5.220;2023-05-15T11:01:28;4.93;;;3.47;;
65706;SDS011;52423;43.512;5.220;2023-05-15T11:06:37;6.47;;;3.47;;
65706;SDS011;52423;43.512;5.220;2023-05-15T11:14:23;3.75;;;3.40;;
65706;SDS011;52423;43.512;5.220;2023-05-15T11:22:39;4.35;;;3.67;;
65706;SDS011;52423;43.512;5.220;2023-05-15T11:25:09;5.70;;;4.00;;
65706;SDS011;52423;43.512;5.220;2023-05-15T11:27:42;5.88;;;4.03;;
65706;SDS011;52423;43.512;5.220;2023-05-15T11:35:20;6.70;;;4.75;;
65706;SDS011;52423;43.512;5.220;2023-05-15T11:37:52;8.43;;;4.32;;
65706;SDS011;52423;43.512;5.220;2023-05-15T11:40:21;11.88;;;4.53;;
65706;SDS011;52423;43.512;5.220;2023-05-15T11:43:06;4.50;;;3.58;;
65706;SDS011;52423;43.512;5.220;2023-05-15T11:45:43;4.07;;;3.55;;
65706;SDS011;52423;43.512;5.220;2023-05-15T11:48:13;3.95;;;3.45;;
65706;SDS011;52423;43.512;5.220;2023-05-15T11:50:39;5.13;;;3.95;;
65706;SDS011;52423;43.512;5.220;2023-05-15T11:53:06;4.22;;;3.30;;
65706;SDS011;52423;43.512;5.220;2023-05-15T11:55:33;3.83;;;3.53;;
65706;SDS011;52423;43.512;5.220;2023-05-15T11:58:01;3.97;;;3.60;;
65706;SDS011;52423;43.512;5.220;2023-05-15T12:00:28;7.78;;;4.05;;
65706;SDS011;52423;43.512;5.220;2023-05-15T12:02:53;5.68;;;3.58;;
65706;SDS011;52423;43.512;5.220;2023-05-15T12:05:19;3.95;;;3.50;;
65706;SDS011;52423;43.512;5.220;2023-05-15T12:07:45;5.75;;;4.03;;
65706;SDS011;52423;43.512;5.220;2023-05-15T12:10:11;7.82;;;3.78;;
65706;SDS011;52423;43.512;5.220;2023-05-15T12:12:40;15.10;;;4.95;;
65706;SDS011;52423;43.512;5.220;2023-05-15T12:15:10;10.68;;;4.50;;
65706;SDS011;52423;43.512;5.220;2023-05-15T12:17:37;8.90;;;4.20;;
65706;SDS011;52423;43.512;5.220;2023-05-15T12:20:04;12.00;;;4.57;;
65706;SDS011;52423;43.512;5.220;2023-05-15T12:22:39;5.38;;;3.60;;
65706;SDS011;52423;43.512;5.220;2023-05-15T12:25:06;4.72;;;3.80;;
65706;SDS011;52423;43.512;5.220;2023-05-15T12:27:33;8.20;;;4.07;;
65706;SDS011;52423;43.512;5.220;2023-05-15T12:29:59;9.13;;;4.50;;
65706;SDS011;52423;43.512;5.220;2023-05-15T12:32:25;4.28;;;3.63;;
65706;SDS011;52423;43.512;5.220;2023-05-15T12:34:51;5.70;;;3.33;;
65706;SDS011;52423;43.512;5.220;2023-05-15T12:37:18;5.13;;;3.95;;
65706;SDS011;52423;43.512;5.220;2023-05-15T12:39:51;5.63;;;4.05;;
65706;SDS011;52423;43.512;5.220;2023-05-15T12:42:18;5.30;;;3.93;;
65706;SDS011;52423;43.512;5.220;2023-05-15T12:44:43;5.85;;;3.63;;
65706;SDS011;52423;43.512;5.220;2023-05-15T12:47:09;7.18;;;3.63;;
65706;SDS011;52423;43.512;5.220;2023-05-15T12:49:39;4.82;;;3.30;;
65706;SDS011;52423;43.512;5.220;2023-05-15T12:52:09;6.60;;;3.70;;
65706;SDS011;52423;43.512;5.220;2023-05-15T12:54:41;4.03;;;3.63;;
65706;SDS011;52423;43.512;5.220;2023-05-15T12:57:07;4.20;;;3.70;;
65706;SDS011;52423;43.512;5.220;2023-05-15T12:59:33;3.70;;;3.40;;
65706;SDS011;52423;43.512;5.220;2023-05-15T13:01:59;4.93;;;4.03;;
65706;SDS011;52423;43.512;5.220;2023-05-15T13:04:24;3.67;;;3.22;;
65706;SDS011;52423;43.512;5.220;2023-05-15T13:06:50;8.40;;;4.03;;
65706;SDS011;52423;43.512;5.220;2023-05-15T13:09:20;3.88;;;3.47;;
65706;SDS011;52423;43.512;5.220;2023-05-15T13:11:46;6.95;;;3.75;;
65706;SDS011;52423;43.512;5.220;2023-05-15T13:14:12;7.53;;;4.00;;
65706;SDS011;52423;43.512;5.220;2023-05-15T13:16:41;9.70;;;3.63;;
65706;SDS011;52423;43.512;5.220;2023-05-15T13:19:07;11.43;;;3.42;;
65706;SDS011;52423;43.512;5.220;2023-05-15T13:21:33;9.02;;;3.40;;
65706;SDS011;52423;43.512;5.220;2023-05-15T13:23:59;5.43;;;3.92;;
65706;SDS011;52423;43.512;5.220;2023-05-15T13:26:24;10.10;;;4.28;;
65706;SDS011;52423;43.512;5.220;2023-05-15T13:28:50;5.47;;;3.10;;
65706;SDS011;52423;43.512;5.220;2023-05-15T13:31:15;4.68;;;3.30;;
65706;SDS011;52423;43.512;5.220;2023-05-15T13:33:41;3.53;;;3.22;;
65706;SDS011;52423;43.512;5.220;2023-05-15T13:36:07;4.20;;;3.63;;
65706;SDS011;52423;43.512;5.220;2023-05-15T13:38:32;4.32;;;3.03;;
65706;SDS011;52423;43.512;5.220;2023-05-15T13:40:58;5.57;;;3.05;;
65706;SDS011;52423;43.512;5.220;2023-05-15T13:43:23;6.78;;;3.53;;
65706;SDS011;52423;43.512;5.220;2023-05-15T13:45:49;3.90;;;3.30;;
65706;SDS011;52423;43.512;5.220;2023-05-15T13:48:14;5.45;;;3.55;;
65706;SDS011;52423;43.512;5.220;2023-05-15T13:50:40;4.60;;;3.50;;
65706;SDS011;52423;43.512;5.220;2023-05-15T13:53:07;7.05;;;3.30;;
65706;SDS011;52423;43.512;5.220;2023-05-15T13:55:32;7.90;;;3.05;;
65706;SDS011;52423;43.512;5.220;2023-05-15T13:57:58;4.85;;;3.38;;
65706;SDS011;52423;43.512;5.220;2023-05-15T14:00:25;5.13;;;3.42;;
65706;SDS011;52423;43.512;5.220;2023-05-15T14:02:50;11.95;;;3.67;;
65706;SDS011;52423;43.512;5.220;2023-05-15T14:05:16;3.40;;;3.10;;
65706;SDS011;52423;43.512;5.220;2023-05-15T14:07:42;3.50;;;3.20;;
65706;SDS011;52423;43.512;5.220;2023-05-15T14:10:08;6.28;;;3.40;;
65706;SDS011;52423;43.512;5.220;2023-05-15T14:12:34;13.50;;;3.58;;
65706;SDS011;52423;43.512;5.220;2023-05-15T14:15:00;5.00;;;3.10;;
65706;SDS011;52423;43.512;5.220;2023-05-15T14:17:25;3.53;;;3.10;;
65706;SDS011;52423;43.512;5.220;2023-05-15T14:19:52;10.75;;;3.10;;
65706;SDS011;52423;43.512;5.220;2023-05-15T14:22:17;4.55;;;3.38;;
65706;SDS011;52423;43.512;5.220;2023-05-15T14:24:42;8.48;;;3.30;;
65706;SDS011;52423;43.512;5.220;2023-05-15T14:27:08;5.03;;;2.90;;
65706;SDS011;52423;43.512;5.220;2023-05-15T14:29:34;16.35;;;3.88;;
65706;SDS011;52423;43.512;5.220;2023-05-15T14:31:59;3.95;;;3.00;;
65706;SDS011;52423;43.512;5.220;2023-05-15T14:34:25;3.22;;;2.92;;
65706;SDS011;52423;43.512;5.220;2023-05-15T14:36:50;5.65;;;2.97;;
65706;SDS011;52423;43.512;5.220;2023-05-15T14:39:16;3.95;;;3.25;;
65706;SDS011;52423;43.512;5.220;2023-05-15T14:41:42;3.95;;;3.20;;
65706;SDS011;52423;43.512;5.220;2023-05-15T14:44:08;8.40;;;3.20;;
65706;SDS011;52423;43.512;5.220;2023-05-15T14:46:33;4.72;;;3.53;;
65706;SDS011;52423;43.512;5.220;2023-05-15T14:49:00;19.88;;;3.97;;
65706;SDS011;52423;43.512;5.220;2023-05-15T14:51:25;4.03;;;3.38;;
65706;SDS011;52423;43.512;5.220;2023-05-15T14:53:51;7.22;;;3.10;;
65706;SDS011;52423;43.512;5.220;2023-05-15T14:56:16;5.18;;;3.80;;
65706;SDS011;52423;43.512;5.220;2023-05-15T14:58:42;5.18;;;3.35;;
65706;SDS011;52423;43.512;5.220;2023-05-15T15:01:07;5.53;;;3.42;;
65706;SDS011;52423;43.512;5.220;2023-05-15T15:03:32;3.70;;;3.30;;
65706;SDS011;52423;43.512;5.220;2023-05-15T15:05:58;4.55;;;4.13;;
65706;SDS011;52423;43.512;5.220;2023-05-15T15:08:23;5.70;;;3.50;;
65706;SDS011;52423;43.512;5.220;2023-05-15T15:10:49;6.70;;;2.97;;
65706;SDS011;52423;43.512;5.220;2023-05-15T15:13:15;6.00;;;3.05;;
65706;SDS011;52423;43.512;5.220;2023-05-15T15:15:41;3.22;;;2.90;;
65706;SDS011;52423;43.512;5.220;2023-05-15T15:18:06;4.80;;;3.13;;
65706;SDS011;52423;43.512;5.220;2023-05-15T15:20:32;8.05;;;3.10;;
65706;SDS011;52423;43.512;5.220;2023-05-15T15:22:57;6.65;;;3.40;;
65706;SDS011;52423;43.512;5.220;2023-05-15T15:25:23;8.38;;;3.00;;
65706;SDS011;52423;43.512;5.220;2023-05-15T15:27:48;4.15;;;3.08;;